Webcams

Webcam1&2         Webcam1 (Zeitraffer 2 Std.)        Webcam2 (Zeitraffer 2 Std.)

Webcam2 - Zeitraffer (die letzten zwei Stunden, Intervall: 10min)
cam2--20180422_192958M
cam2--20180422_193957M
cam2--20180422_194958M
cam2--20180422_195958M
cam2--20180422_200958M
cam2--20180422_201958M
cam2--20180422_202959M
cam2--20180422_203957M
cam2--20180422_204958M
cam2--20180422_205957M
cam2--20180422_210959M
cam2--20180422_211959M
cam2--20180422_212958M
01/13 
start stop bwd fwd

Webcam2 - Aktuell

Lokale Serverzeit 21:30 | 22.04.2018
Webcam-Lageplan

Flugwetter

[source: ADDS]
METAR
LOWL 222320Z AUTO VRB01KT 9999 NSC 13/09 Q1015 =
TAF
TAF LOWL 222315Z 2300/2324 VRB02KT CAVOK TX25/2312Z TN12/2303Z BECMG 2309/2311 28010KT 9999 SCT050 SCT140 TEMPO 2314/2324 30013G25KT -SHRA SCT040TCU BKN070 PROB40 TEMPO 2316/2324 28017G27KT 2000 TSRA BKN025 SCT050CB =